Time;durP1;ratioP1;P1;durP2;ratioP2;P2;SDS_P1;SDS_P2;PMS_P1;PMS_P2;Temp;Humidity;BMP_temperature;BMP_pressure;BME280_temperature;BME280_humidity;BME280_pressure;Samples;Min_cycle;Max_cycle;Signal;HPM_P1;HPM_P2
2022/08/12 00:43:29;;;;;;;8.13;6.10;;;;;;;20.97;100.00;101442.59;2073330;28;20432;-65
2022/08/12 00:44:29;;;;;;;8.67;6.47;;;;;;;21.03;100.00;101443.47;2065919;28;20523;-64
2022/08/12 00:46:29;;;;;;;8.30;6.33;;;;;;;21.21;100.00;101476.34;2070366;28;20744;-65
2022/08/12 00:46:56;;;;;;;9.60;7.20;;;;;;;21.19;100.00;101481.69;2072118;28;20238;-65
2022/08/12 00:47:57;;;;;;;10.40;6.60;;;;;;;21.15;100.00;101478.28;2065861;28;20463;-64
2022/08/12 00:49:00;;;;;;;7.90;6.60;;;;;;;21.13;100.00;101478.00;2064342;28;20456;-64
2022/08/12 00:50:01;;;;;;;9.63;7.10;;;;;;;21.10;100.00;101476.16;2065362;28;20271;-64
2022/08/12 00:51:04;;;;;;;8.40;6.77;;;;;;;21.05;100.00;101477.63;2064955;28;20491;-64
2022/08/12 00:52:05;;;;;;;9.53;7.20;;;;;;;20.92;100.00;101450.94;2059733;28;20186;-64
2022/08/12 00:53:08;;;;;;;9.83;7.03;;;;;;;21.08;100.00;101475.88;2056412;28;20426;-64
2022/08/12 00:54:08;;;;;;;9.87;6.70;;;;;;;20.81;100.00;101445.06;2057811;28;20422;-65
2022/08/12 00:55:09;;;;;;;8.40;6.73;;;;;;;21.02;100.00;101481.38;2064083;28;20929;-65
2022/08/12 00:56:09;;;;;;;8.37;6.60;;;;;;;20.92;100.00;101462.22;2064670;28;20195;-64
2022/08/12 00:57:19;;;;;;;8.37;6.43;;;;;;;21.00;100.00;101478.28;2063519;28;20272;-65
2022/08/12 00:58:23;;;;;;;9.33;7.00;;;;;;;20.97;100.00;101478.44;2057615;28;20226;-64
2022/08/12 00:59:24;;;;;;;10.47;7.17;;;;;;;20.67;100.00;101437.38;2064837;28;20438;-64
2022/08/12 01:00:43;;;;;;;9.00;7.10;;;;;;;20.56;100.00;101421.03;2065143;28;20469;-64
2022/08/12 01:01:46;;;;;;;8.63;6.77;;;;;;;20.99;100.00;101487.22;2071764;28;20196;-65
2022/08/12 01:02:54;;;;;;;7.87;6.67;;;;;;;20.94;100.00;101491.47;2066176;28;20445;-65
2022/08/12 01:12:04;;;;;;;7.20;6.50;;;;;;;20.64;100.00;101480.59;2065200;28;20527;-64
2022/08/12 01:13:06;;;;;;;7.90;6.70;;;;;;;20.84;100.00;101501.25;2071691;28;20528;-64
2022/08/12 01:14:06;;;;;;;7.30;6.60;;;;;;;20.86;100.00;101501.53;2072949;28;20444;-64
2022/08/12 01:15:10;;;;;;;10.60;7.20;;;;;;;20.88;100.00;101512.34;2071869;28;20491;-64
2022/08/12 01:16:13;;;;;;;7.40;6.33;;;;;;;20.14;100.00;101391.50;2067942;28;20186;-64
2022/08/12 01:17:14;;;;;;;10.77;6.83;;;;;;;20.42;100.00;101430.22;2064207;28;20955;-65
2022/08/12 01:18:16;;;;;;;7.47;6.67;;;;;;;20.86;100.00;101504.34;2064943;28;20912;-64
2022/08/12 01:19:22;;;;;;;9.40;7.20;;;;;;;20.86;100.00;101497.94;2064632;28;20178;-65
2022/08/12 01:20:37;;;;;;;8.70;7.03;;;;;;;20.78;100.00;101494.69;2064711;28;20473;-65
2022/08/12 01:21:44;;;;;;;12.10;7.30;;;;;;;20.83;100.00;101496.09;2057767;28;20845;-65
2022/08/12 01:23:07;;;;;;;9.53;7.00;;;;;;;20.10;100.00;101396.50;2064290;28;20848;-64
2022/08/12 01:24:32;;;;;;;9.87;7.23;;;;;;;20.78;100.00;101496.75;2064021;28;20872;-64
2022/08/12 01:25:37;;;;;;;9.97;6.70;;;;;;;20.77;100.00;101492.38;2067223;28;20451;-64
2022/08/12 01:26:40;;;;;;;10.80;7.03;;;;;;;20.78;100.00;101510.84;2071989;28;20432;-64
2022/08/12 01:27:42;;;;;;;8.43;7.60;;;;;;;20.07;100.00;101414.34;2068188;28;20446;-64
2022/08/12 01:28:45;;;;;;;8.80;6.77;;;;;;;20.71;100.00;101511.97;2064519;28;20445;-64
2022/08/12 01:29:50;;;;;;;7.90;6.67;;;;;;;20.54;100.00;101487.53;2064897;28;20532;-64
2022/08/12 01:30:51;;;;;;;10.47;6.90;;;;;;;20.16;100.00;101436.84;2058083;28;20410;-64
2022/08/12 01:31:57;;;;;;;6.97;6.00;;;;;;;20.02;100.00;101412.19;2063851;28;20416;-64
2022/08/12 01:33:01;;;;;;;9.57;6.40;;;;;;;20.16;100.00;101431.22;2072062;28;20508;-65
2022/08/12 01:34:08;;;;;;;7.80;6.57;;;;;;;20.62;100.00;101497.19;2066557;28;20425;-65
2022/08/12 01:35:11;;;;;;;8.27;6.13;;;;;;;20.63;100.00;101499.50;2064132;28;20421;-64
2022/08/12 01:36:16;;;;;;;7.37;6.57;;;;;;;20.62;100.00;101500.78;2071966;28;20436;-65
2022/08/12 01:37:19;;;;;;;7.97;7.17;;;;;;;20.24;100.00;101449.28;2063177;28;20496;-65
2022/08/12 01:38:22;;;;;;;10.20;6.93;;;;;;;20.68;100.00;101501.66;2064831;28;20973;-64
2022/08/12 01:39:36;;;;;;;10.10;7.33;;;;;;;20.70;100.00;101504.00;2064118;28;20452;-64
2022/08/12 01:40:42;;;;;;;12.70;7.70;;;;;;;20.49;100.00;101469.28;2065271;28;20450;-64
2022/08/12 01:41:46;;;;;;;13.90;7.57;;;;;;;20.68;100.00;101496.03;2065002;28;20492;-65
2022/08/12 01:42:49;;;;;;;12.57;7.97;;;;;;;20.65;100.00;101501.84;2064683;28;20503;-64
2022/08/12 01:43:53;;;;;;;9.60;7.63;;;;;;;20.67;100.00;101500.13;2070049;28;20443;-64
2022/08/12 01:44:56;;;;;;;10.03;6.90;;;;;;;20.62;100.00;101497.97;2071783;28;21001;-64
2022/08/12 01:46:13;;;;;;;10.37;7.53;;;;;;;20.47;100.00;101471.03;2063170;28;20428;-64
2022/08/12 01:47:41;;;;;;;10.73;7.30;;;;;;;20.64;100.00;101494.66;2065916;28;20482;-64
2022/08/12 01:48:44;;;;;;;8.70;6.90;;;;;;;20.61;100.00;101496.41;2064917;28;20456;-64
2022/08/12 01:50:06;;;;;;;9.70;6.83;;;;;;;20.58;100.00;101488.91;2064330;28;20445;-64
2022/08/12 01:51:33;;;;;;;8.17;6.80;;;;;;;20.56;100.00;101488.63;2065030;28;20430;-64
2022/08/12 01:52:52;;;;;;;9.87;7.20;;;;;;;20.51;100.00;101486.47;2072376;28;20471;-65
2022/08/12 01:54:12;;;;;;;7.50;6.30;;;;;;;20.42;100.00;101480.13;2069242;28;20441;-65
2022/08/12 01:55:18;;;;;;;8.47;6.53;;;;;;;20.08;100.00;101427.97;2069160;28;20502;-65
2022/08/12 01:56:23;;;;;;;8.87;6.70;;;;;;;20.22;100.00;101452.56;2067795;28;20457;-65
2022/08/12 01:57:43;;;;;;;8.57;6.27;;;;;;;20.34;100.00;101476.91;2064588;28;20499;-64
2022/08/12 02:00:12;;;;;;;6.70;5.90;;;;;;;20.21;100.00;101473.53;2065843;28;20433;-65
2022/08/12 02:01:13;;;;;;;9.27;6.30;;;;;;;20.01;100.00;101455.66;2064539;28;20445;-64
2022/08/12 02:02:17;;;;;;;9.70;6.80;;;;;;;19.88;100.00;101457.88;2064487;28;20447;-65
2022/08/12 02:12:20;;;;;;;7.13;6.43;;;;;;;19.64;100.00;101480.34;2064913;28;20378;-64
2022/08/12 02:13:21;;;;;;;7.37;6.63;;;;;;;19.58;100.00;101479.44;2064632;28;20448;-65
2022/08/12 02:15:00;;;;;;;7.60;6.80;;;;;;;19.60;100.00;101484.59;2066849;28;20424;-64
2022/08/12 02:16:12;;;;;;;8.63;7.00;;;;;;;19.54;100.00;101490.06;2050051;28;20195;-65
2022/08/12 02:17:28;;;;;;;7.50;6.80;;;;;;;19.48;100.00;101491.94;2047334;29;20514;-65
2022/08/12 02:19:05;;;;;;;8.17;7.37;;;;;;;19.29;100.00;101475.63;2039570;29;20490;-64
2022/08/12 02:20:20;;;;;;;8.03;6.70;;;;;;;19.43;100.00;101491.78;2044808;29;20518;-65
2022/08/12 02:21:37;;;;;;;9.47;7.43;;;;;;;19.42;100.00;101493.84;2045167;28;20533;-64
2022/08/12 02:22:43;;;;;;;8.03;7.23;;;;;;;19.47;100.00;101489.59;2068947;28;20971;-65
2022/08/12 02:23:45;;;;;;;8.43;7.60;;;;;;;18.98;100.00;101411.16;2068106;28;20524;-64
2022/08/12 02:24:47;;;;;;;8.37;7.57;;;;;;;19.49;100.00;101481.50;2064640;28;20437;-64
2022/08/12 02:25:53;;;;;;;8.20;7.40;;;;;;;19.36;100.00;101466.84;2063596;28;20486;-65
2022/08/12 02:26:56;;;;;;;8.73;7.27;;;;;;;19.56;100.00;101492.41;2066305;28;20409;-64
2022/08/12 02:27:57;;;;;;;8.67;7.37;;;;;;;19.57;100.00;101489.13;2070976;28;20506;-64
2022/08/12 02:28:58;;;;;;;8.30;7.40;;;;;;;19.46;100.00;101469.16;2071489;28;20431;-65
2022/08/12 02:29:59;;;;;;;8.30;7.50;;;;;;;19.21;100.00;101444.22;2064376;28;20177;-65
2022/08/12 02:31:03;;;;;;;7.53;6.73;;;;;;;19.68;100.00;101489.38;2064150;28;20998;-64
2022/08/12 02:32:05;;;;;;;8.60;7.13;;;;;;;19.72;100.00;101489.22;2064205;28;20275;-64
2022/08/12 02:33:06;;;;;;;7.47;6.77;;;;;;;19.73;100.00;101488.75;2063798;28;20475;-64
2022/08/12 02:34:08;;;;;;;7.80;7.00;;;;;;;19.78;100.00;101492.94;2067384;28;20444;-64
2022/08/12 02:35:13;;;;;;;9.37;7.10;;;;;;;19.48;100.00;101440.56;2063180;28;20194;-65
2022/08/12 02:36:15;;;;;;;10.17;7.10;;;;;;;19.57;100.00;101451.78;2070913;28;20480;-64
2022/08/12 02:37:17;;;;;;;9.47;7.27;;;;;;;19.65;100.00;101472.69;2071504;28;20508;-64
2022/08/12 02:38:20;;;;;;;8.47;7.57;;;;;;;19.20;100.00;101400.50;2065714;28;20923;-64
2022/08/12 02:39:25;;;;;;;9.10;6.87;;;;;;;19.90;100.00;101495.53;2072302;28;20506;-64
2022/08/12 02:40:27;;;;;;;7.83;6.83;;;;;;;19.92;100.00;101506.31;2062857;28;20959;-65
2022/08/12 02:41:31;;;;;;;8.30;7.17;;;;;;;19.94;100.00;101495.38;2064375;28;20437;-65
2022/08/12 02:42:33;;;;;;;8.47;7.27;;;;;;;19.76;100.00;101475.78;2072182;28;20527;-65
2022/08/12 02:43:43;;;;;;;9.60;7.10;;;;;;;19.97;100.00;101489.59;2065021;28;20460;-65
2022/08/12 02:44:47;;;;;;;8.10;6.87;;;;;;;20.02;100.00;101496.59;2071624;28;20506;-64
2022/08/12 02:45:56;;;;;;;9.57;7.30;;;;;;;19.91;100.00;101468.19;2064805;28;20449;-64
2022/08/12 02:47:01;;;;;;;8.50;7.17;;;;;;;20.02;100.00;101483.31;2070815;28;20462;-65
2022/08/12 02:48:08;;;;;;;10.33;7.13;;;;;;;20.07;100.00;101498.75;2066090;28;20437;-64
2022/08/12 02:49:14;;;;;;;9.77;6.83;;;;;;;20.10;100.00;101495.00;2064000;28;20457;-65
2022/08/12 02:50:19;;;;;;;12.10;7.37;;;;;;;20.09;100.00;101491.44;2064426;28;20452;-64
2022/08/12 02:51:27;;;;;;;9.90;7.47;;;;;;;20.11;100.00;101496.59;2068675;28;20486;-64
2022/08/12 02:52:31;;;;;;;10.10;7.43;;;;;;;20.00;100.00;101494.25;2072168;28;20476;-64
2022/08/12 02:53:35;;;;;;;9.50;6.63;;;;;;;19.91;100.00;101490.72;2072439;28;20944;-65
2022/08/12 02:54:37;;;;;;;8.03;6.73;;;;;;;19.94;100.00;101501.00;2068453;28;20445;-64
2022/08/12 02:55:38;;;;;;;9.93;6.87;;;;;;;19.95;100.00;101494.13;2066861;28;20441;-65
2022/08/12 02:56:40;;;;;;;10.57;7.27;;;;;;;19.93;100.00;101503.03;2077587;28;20428;-64
2022/08/12 02:57:43;;;;;;;11.10;7.60;;;;;;;19.84;100.00;101502.28;2071584;28;20174;-64
2022/08/12 02:58:45;;;;;;;9.30;7.40;;;;;;;19.80;100.00;101507.31;2064758;28;20500;-65
2022/08/12 02:59:47;;;;;;;11.33;7.70;;;;;;;19.82;100.00;101508.41;2072782;28;20409;-64
2022/08/12 03:00:48;;;;;;;8.80;7.00;;;;;;;19.86;100.00;101502.59;2064427;28;20439;-64
2022/08/12 03:02:02;;;;;;;8.90;7.07;;;;;;;19.89;100.00;101508.06;2070688;28;20938;-64
2022/08/12 03:03:11;;;;;;;14.00;7.23;;;;;;;19.92;100.00;101514.75;2064419;28;20448;-64
2022/08/12 03:04:35;;;;;;;10.17;6.93;;;;;;;19.96;100.00;101504.88;2064420;28;21001;-65
2022/08/12 03:05:44;;;;;;;9.53;7.23;;;;;;;19.95;100.00;101508.97;2063033;28;20437;-65
2022/08/12 03:06:50;;;;;;;14.67;7.83;;;;;;;19.93;100.00;101496.63;2064185;28;20409;-64
2022/08/12 03:07:52;;;;;;;12.60;7.67;;;;;;;19.86;100.00;101494.94;2071931;28;20474;-64
2022/08/12 03:08:57;;;;;;;12.90;7.53;;;;;;;19.79;100.00;101498.09;2064694;28;20421;-64
2022/08/12 03:10:07;;;;;;;11.13;7.77;;;;;;;19.76;100.00;101492.66;2064561;28;20443;-64
2022/08/12 03:11:36;;;;;;;7.93;7.13;;;;;;;19.73;100.00;101502.81;2064663;28;20517;-65
2022/08/12 03:12:47;;;;;;;8.03;6.93;;;;;;;19.74;100.00;101503.56;2065091;28;20544;-64
2022/08/12 03:13:56;;;;;;;10.43;7.37;;;;;;;19.77;100.00;101505.44;2070074;28;20432;-65
2022/08/12 03:15:00;;;;;;;7.40;6.70;;;;;;;19.76;100.00;101503.91;2065995;28;20902;-65
2022/08/12 03:16:01;;;;;;;7.90;7.10;;;;;;;19.72;100.00;101489.22;2070091;28;20531;-64
2022/08/12 03:17:12;;;;;;;8.70;6.50;;;;;;;19.82;100.00;101502.78;2064008;28;20414;-64
2022/08/12 03:18:32;;;;;;;7.73;6.50;;;;;;;19.78;100.00;101512.63;2064182;28;20167;-65
2022/08/12 03:19:32;;;;;;;9.83;7.40;;;;;;;19.72;100.00;101506.88;2066722;28;20938;-64
2022/08/12 03:20:37;;;;;;;8.77;7.33;;;;;;;19.68;100.00;101514.69;2070778;28;20867;-65
2022/08/12 03:21:40;;;;;;;9.60;7.33;;;;;;;19.09;100.00;101421.91;2064430;28;20174;-64
2022/08/12 03:22:45;;;;;;;9.83;7.40;;;;;;;19.63;100.00;101509.72;2063436;28;20774;-64
2022/08/12 03:23:47;;;;;;;9.20;6.97;;;;;;;19.63;100.00;101506.91;2072057;28;20957;-65
2022/08/12 03:24:49;;;;;;;9.40;6.87;;;;;;;19.60;100.00;101504.25;2070905;28;20440;-64
2022/08/12 03:25:55;;;;;;;8.70;6.80;;;;;;;19.68;100.00;101519.53;2056080;28;20450;-64
2022/08/12 03:27:02;;;;;;;7.60;6.80;;;;;;;19.69;100.00;101512.66;2064127;28;20551;-65
2022/08/12 03:28:03;;;;;;;7.70;6.53;;;;;;;19.70;100.00;101511.41;2070420;28;20437;-64
2022/08/12 03:29:05;;;;;;;8.93;6.77;;;;;;;19.36;100.00;101453.56;2064011;28;20950;-64
2022/08/12 03:30:06;;;;;;;9.57;6.77;;;;;;;19.77;100.00;101505.44;2068702;28;20520;-64
2022/08/12 03:31:09;;;;;;;10.30;7.00;;;;;;;19.77;100.00;101499.81;2069454;28;20511;-65
2022/08/12 03:32:11;;;;;;;10.20;6.80;;;;;;;19.81;100.00;101506.06;2065460;28;20448;-64
2022/08/12 03:33:12;;;;;;;9.87;7.53;;;;;;;19.82;100.00;101499.19;2066712;28;20417;-64
2022/08/12 03:34:22;;;;;;;8.97;6.80;;;;;;;19.80;100.00;101498.88;2072634;28;20423;-65
2022/08/12 03:35:26;;;;;;;8.60;7.07;;;;;;;19.76;100.00;101495.47;2066067;28;20842;-64
2022/08/12 03:36:28;;;;;;;9.90;7.40;;;;;;;19.78;100.00;101502.16;2063726;28;20514;-64
2022/08/12 03:37:30;;;;;;;8.33;6.63;;;;;;;19.80;100.00;101496.06;2057271;28;20491;-65
2022/08/12 03:38:33;;;;;;;9.00;7.07;;;;;;;19.80;100.00;101496.84;2073105;28;20454;-64
2022/08/12 03:41:35;;;;;;;8.80;7.00;;;;;;;19.79;100.00;101497.31;2072848;28;20454;-65
2022/08/12 03:42:41;;;;;;;9.20;6.73;;;;;;;19.80;100.00;101498.88;2048445;29;21063;-65
2022/08/12 04:00:23;;;;;;;11.77;7.00;;;;;;;19.44;100.00;101459.66;2065668;28;20443;-64
2022/08/12 04:01:26;;;;;;;10.37;7.30;;;;;;;19.85;100.00;101523.56;2065777;28;20506;-64
2022/08/12 04:02:29;;;;;;;10.23;7.10;;;;;;;19.87;100.00;101518.22;2072783;28;20453;-65
2022/08/12 04:04:49;;;;;;;7.87;7.03;;;;;;;19.88;100.00;101519.78;2065391;28;20927;-65
2022/08/12 04:05:50;;;;;;;8.70;6.63;;;;;;;19.89;100.00;101518.53;2071189;28;20893;-64
2022/08/12 04:06:52;;;;;;;9.20;6.90;;;;;;;19.86;100.00;101519.47;2073412;28;20180;-64
2022/08/12 04:07:52;;;;;;;9.43;6.67;;;;;;;19.85;100.00;101512.31;2068111;28;20239;-65
2022/08/12 04:08:57;;;;;;;9.60;7.20;;;;;;;19.85;100.00;101515.13;2065274;28;20451;-65
2022/08/12 04:09:58;;;;;;;15.90;8.30;;;;;;;19.76;100.00;101510.28;2065067;28;20635;-65
2022/08/12 04:13:37;;;;;;;8.40;7.30;;;;;;;19.22;100.00;101451.41;2070641;28;20955;-64
2022/08/12 04:14:39;;;;;;;9.10;7.50;;;;;;;19.72;100.00;101517.34;2060000;28;20538;-64
2022/08/12 04:15:42;;;;;;;9.23;6.57;;;;;;;19.74;100.00;101515.63;2051250;28;20296;-64
2022/08/12 04:16:43;;;;;;;8.30;7.50;;;;;;;19.62;100.00;101499.72;2064545;28;20877;-64
2022/08/12 04:17:46;;;;;;;7.70;6.60;;;;;;;19.74;100.00;101523.25;2070910;28;20423;-64
2022/08/12 04:18:47;;;;;;;8.10;7.30;;;;;;;19.73;100.00;101522.50;2065375;28;20600;-64
2022/08/12 04:19:48;;;;;;;7.67;6.50;;;;;;;19.73;100.00;101521.69;2065624;28;20443;-64
2022/08/12 04:20:49;;;;;;;7.90;6.73;;;;;;;19.70;100.00;101528.28;2065312;28;20196;-64
2022/08/12 04:21:49;;;;;;;8.37;6.70;;;;;;;19.39;100.00;101477.16;2072078;28;20524;-65
2022/08/12 04:22:52;;;;;;;6.87;6.07;;;;;;;19.77;100.00;101525.13;2067356;28;20189;-65
2022/08/12 04:23:54;;;;;;;8.37;6.77;;;;;;;19.72;100.00;101523.75;2065153;28;20639;-65
2022/08/12 04:25:00;;;;;;;9.73;6.40;;;;;;;19.73;100.00;101528.13;2068644;28;20512;-64
2022/08/12 04:26:00;;;;;;;7.60;6.80;;;;;;;19.77;100.00;101523.13;2068727;28;20517;-64
2022/08/12 04:27:04;;;;;;;8.67;7.07;;;;;;;19.82;100.00;101535.75;2065165;28;20927;-64
2022/08/12 04:28:08;;;;;;;7.77;6.50;;;;;;;19.65;100.00;101500.81;2066792;28;20191;-64
2022/08/12 04:29:09;;;;;;;9.00;6.80;;;;;;;19.87;100.00;101526.66;2071816;28;20822;-64
2022/08/12 04:30:11;;;;;;;8.93;6.83;;;;;;;19.37;100.00;101451.53;2065137;28;20433;-64
2022/08/12 04:31:13;;;;;;;10.77;7.17;;;;;;;19.93;100.00;101534.00;2073599;28;20209;-64
2022/08/12 04:32:14;;;;;;;8.60;7.47;;;;;;;19.99;100.00;101532.09;2072919;28;20493;-65
2022/08/12 04:33:17;;;;;;;7.90;6.90;;;;;;;19.88;100.00;101516.97;2067256;28;20486;-65
2022/08/12 04:34:18;;;;;;;7.43;6.53;;;;;;;19.31;100.00;101423.31;2072606;28;20463;-66
2022/08/12 04:35:19;;;;;;;8.03;6.60;;;;;;;20.01;100.00;101532.38;2068672;28;20480;-66
2022/08/12 04:36:20;;;;;;;7.67;6.20;;;;;;;20.08;100.00;101532.09;2068064;28;20200;-66
2022/08/12 04:37:20;;;;;;;8.33;6.73;;;;;;;20.02;100.00;101519.91;2069033;28;20542;-66
2022/08/12 04:38:22;;;;;;;9.03;6.53;;;;;;;19.90;100.00;101489.16;2070354;28;20184;-66
2022/08/12 04:39:25;;;;;;;9.23;6.77;;;;;;;19.71;100.00;101454.69;2069713;28;20246;-66
2022/08/12 04:40:28;;;;;;;7.73;6.13;;;;;;;19.88;100.00;101474.78;2070365;28;20428;-66
2022/08/12 04:41:30;;;;;;;7.63;6.07;;;;;;;20.46;100.00;101523.72;2072762;28;20467;-66
2022/08/12 04:42:31;;;;;;;9.33;6.30;;;;;;;20.37;100.00;101501.25;2068051;28;20450;-65
2022/08/12 04:43:31;;;;;;;6.87;6.27;;;;;;;20.16;100.00;101454.47;2068292;28;20464;-66
2022/08/12 04:44:32;;;;;;;7.27;5.70;;;;;;;20.69;100.00;101525.78;2068879;28;20446;-66
2022/08/12 04:45:36;;;;;;;6.90;6.20;;;;;;;20.59;100.00;101495.34;2067261;28;20194;-66
2022/08/12 04:46:37;;;;;;;6.40;5.70;;;;;;;20.76;100.00;101516.94;2067392;28;20205;-66
2022/08/12 04:47:38;;;;;;;6.63;6.03;;;;;;;20.63;100.00;101487.50;2072072;28;20447;-66
2022/08/12 04:48:39;;;;;;;7.10;5.60;;;;;;;20.86;100.00;101515.63;2071973;28;20425;-66
2022/08/12 04:49:43;;;;;;;7.57;5.63;;;;;;;20.94;100.00;101521.69;2071965;28;20181;-66
2022/08/12 04:50:45;;;;;;;6.03;5.40;;;;;;;20.98;100.00;101528.69;2072427;28;20185;-66
2022/08/12 04:51:47;;;;;;;7.43;6.47;;;;;;;20.30;100.00;101407.94;2072853;28;20448;-66
2022/08/12 04:52:48;;;;;;;8.07;6.20;;;;;;;21.04;100.00;101515.50;2072585;28;20476;-66
2022/08/12 04:53:49;;;;;;;12.10;5.90;;;;;;;20.70;100.00;101454.09;2072396;28;20456;-65
2022/08/12 04:54:50;;;;;;;7.27;5.90;;;;;;;21.14;100.00;101516.97;2063159;28;20479;-66
2022/08/12 04:55:51;;;;;;;6.83;6.10;;;;;;;21.18;100.00;101514.75;2062952;28;20429;-65
2022/08/12 04:56:52;;;;;;;7.27;5.80;;;;;;;21.23;100.00;101516.88;2070806;28;20542;-66
2022/08/12 04:57:54;;;;;;;6.67;6.07;;;;;;;21.22;100.00;101504.06;2072216;28;20268;-66
2022/08/12 04:58:58;;;;;;;6.33;5.73;;;;;;;21.29;100.00;101517.00;2071310;28;20400;-66
2022/08/12 05:00:00;;;;;;;6.30;5.70;;;;;;;20.82;100.00;101453.03;2063023;28;20437;-66
2022/08/12 05:01:00;;;;;;;6.70;5.93;;;;;;;21.34;100.00;101516.31;2057248;28;20573;-66
2022/08/12 05:02:01;;;;;;;6.57;5.80;;;;;;;21.36;100.00;101525.06;2070501;28;20926;-66
2022/08/12 05:03:04;;;;;;;8.43;6.23;;;;;;;21.33;100.00;101509.13;2070693;28;20192;-66
2022/08/12 05:04:06;;;;;;;7.40;6.00;;;;;;;20.99;100.00;101461.84;2070279;28;20202;-66
2022/08/12 05:05:17;;;;;;;8.73;6.30;;;;;;;21.00;100.00;101494.41;2068021;28;21052;-66
2022/08/12 05:06:18;;;;;;;7.50;6.77;;;;;;;20.89;100.00;101480.06;2067621;28;20475;-66
2022/08/12 05:07:19;;;;;;;6.77;6.13;;;;;;;20.53;100.00;101424.81;2070791;28;20440;-66
2022/08/12 05:08:21;;;;;;;9.70;6.73;;;;;;;21.17;100.00;101526.50;2070340;28;20626;-66
2022/08/12 05:09:21;;;;;;;9.67;6.47;;;;;;;21.18;100.00;101509.09;2061441;28;20485;-66
2022/08/12 05:10:22;;;;;;;10.33;6.10;;;;;;;21.27;100.00;101523.13;2061653;28;21036;-66
2022/08/12 05:11:24;;;;;;;8.53;6.23;;;;;;;21.28;100.00;101509.81;2070547;28;20188;-66
2022/08/12 05:12:27;;;;;;;8.07;5.97;;;;;;;21.02;100.00;101470.13;2070975;28;20461;-66
2022/08/12 05:13:37;;;;;;;6.30;5.63;;;;;;;21.46;100.00;101521.69;2062130;28;20488;-66
2022/08/12 05:14:38;;;;;;;8.53;6.47;;;;;;;21.51;100.00;101515.38;2064252;28;20437;-66
2022/08/12 05:15:40;;;;;;;8.53;6.30;;;;;;;21.43;100.00;101497.25;2070117;28;20532;-66
2022/08/12 05:16:41;;;;;;;8.90;6.30;;;;;;;21.61;100.00;101522.47;2069788;28;20288;-65
2022/08/12 05:17:42;;;;;;;7.50;6.10;;;;;;;21.66;100.00;101516.13;2071191;28;20443;-66
2022/08/12 05:18:43;;;;;;;7.07;6.37;;;;;;;21.71;100.00;101521.13;2069503;28;20213;-66
2022/08/12 05:19:43;;;;;;;8.03;6.90;;;;;;;21.70;100.00;101518.78;2069951;28;20449;-66
2022/08/12 05:20:44;;;;;;;7.73;6.27;;;;;;;21.24;100.00;101453.59;2069717;28;20189;-65
2022/08/12 05:21:45;;;;;;;10.40;7.50;;;;;;;21.79;100.00;101510.97;2069791;28;20213;-66
2022/08/12 05:22:46;;;;;;;7.17;6.47;;;;;;;21.84;100.00;101512.31;2070817;28;20228;-66
2022/08/12 05:23:46;;;;;;;9.33;6.50;;;;;;;21.86;100.00;101510.56;2063123;28;20270;-66
2022/08/12 05:24:47;;;;;;;11.20;7.47;;;;;;;21.92;100.00;101516.31;2060835;28;20198;-66
2022/08/12 05:25:50;;;;;;;12.63;8.13;;;;;;;21.92;100.00;101514.28;2070527;28;20201;-66
2022/08/12 05:26:51;;;;;;;7.57;6.80;;;;;;;21.67;100.00;101463.28;2068728;28;20194;-66
2022/08/12 05:27:52;;;;;;;13.87;7.90;;;;;;;21.62;100.00;101466.81;2069244;28;20445;-66
2022/08/12 05:28:55;;;;;;;9.13;7.73;;;;;;;21.59;100.00;101470.63;2069435;28;20792;-65
2022/08/12 05:29:56;;;;;;;11.13;8.50;;;;;;;21.97;100.00;101513.59;2070539;28;20325;-66
2022/08/12 05:31:00;;;;;;;11.20;8.80;;;;;;;21.99;100.00;101513.88;2070928;28;20286;-66
2022/08/12 05:32:01;;;;;;;12.10;9.57;;;;;;;21.88;100.00;101487.50;2069361;28;20189;-66
2022/08/12 05:33:05;;;;;;;10.93;9.10;;;;;;;22.06;100.00;101507.81;2070083;28;20480;-66
2022/08/12 05:34:06;;;;;;;11.80;8.90;;;;;;;21.71;100.00;101453.41;2062698;28;20189;-66
2022/08/12 05:35:07;;;;;;;11.57;8.30;;;;;;;22.05;100.00;101516.78;2059381;28;20561;-65
2022/08/12 05:36:11;;;;;;;13.13;9.00;;;;;;;22.08;100.00;101510.16;2070930;28;20202;-66
2022/08/12 05:37:11;;;;;;;9.80;7.97;;;;;;;21.70;100.00;101445.44;2067864;28;20201;-66
2022/08/12 05:39:37;;;;;;;11.07;8.60;;;;;;;21.60;100.00;101416.50;2069976;28;20216;-66
2022/08/12 05:40:38;;;;;;;10.50;8.30;;;;;;;22.12;100.00;101474.03;2070933;28;20433;-66
2022/08/12 05:41:38;;;;;;;11.83;8.87;;;;;;;22.31;100.00;101512.03;2067871;28;20265;-66
2022/08/12 05:42:39;;;;;;;10.30;8.13;;;;;;;22.38;100.00;101506.75;2059547;28;20187;-66
2022/08/12 05:43:39;;;;;;;9.63;8.17;;;;;;;22.46;100.00;101509.97;2062529;28;20213;-66
2022/08/12 05:44:40;;;;;;;9.07;7.37;;;;;;;22.34;100.00;101494.09;2070076;28;20232;-66
2022/08/12 05:45:40;;;;;;;9.87;8.20;;;;;;;22.50;100.00;101491.53;2070175;28;20590;-66
2022/08/12 05:46:41;;;;;;;10.03;8.27;;;;;;;22.33;100.00;101458.66;2071008;28;20177;-66
2022/08/12 05:47:42;;;;;;;11.93;9.03;;;;;;;22.51;100.00;101473.31;2071105;28;20197;-66
2022/08/12 05:48:43;;;;;;;10.17;8.13;;;;;;;22.68;100.00;101499.72;2067222;28;20288;-66
2022/08/12 05:49:43;;;;;;;13.63;8.83;;;;;;;22.75;100.00;101496.47;2061364;28;20261;-66
2022/08/12 05:50:45;;;;;;;9.00;8.13;;;;;;;22.88;100.00;101505.34;2051508;28;20708;-66
2022/08/12 05:51:45;;;;;;;10.03;8.20;;;;;;;22.95;100.00;101502.13;2057715;28;20264;-66
2022/08/12 05:52:46;;;;;;;11.00;8.10;;;;;;;22.97;100.00;101501.63;2069394;28;20256;-66
2022/08/12 05:53:47;;;;;;;12.93;7.43;;;;;;;22.98;100.00;101506.75;2070011;28;20188;-66
2022/08/12 05:54:47;;;;;;;8.73;7.23;;;;;;;22.25;100.00;101392.56;2071635;28;20273;-66
2022/08/12 05:55:52;;;;;;;9.17;6.70;;;;;;;22.90;100.00;101490.72;2068165;28;20239;-66
2022/08/12 05:56:52;;;;;;;8.83;7.13;;;;;;;22.83;100.00;101477.81;2070744;28;20612;-65
2022/08/12 05:57:54;;;;;;;7.60;6.40;;;;;;;23.03;100.00;101491.91;2071230;28;20211;-66
2022/08/12 05:58:56;;;;;;;7.93;6.30;;;;;;;23.07;100.00;101488.84;2068080;28;20208;-66
2022/08/12 05:59:57;;;;;;;8.23;6.37;;;;;;;23.09;100.00;101494.81;2068858;28;20670;-66
2022/08/12 06:00:58;;;;;;;6.87;6.17;;;;;;;23.02;100.00;101473.41;2070805;28;20201;-66
2022/08/12 06:02:04;;;;;;;6.53;5.83;;;;;;;22.73;100.00;101430.44;2069927;28;20248;-66
2022/08/12 06:03:05;;;;;;;7.70;6.10;;;;;;;23.09;100.00;101486.31;2070834;28;20181;-66
2022/08/12 06:04:08;;;;;;;9.50;6.50;;;;;;;23.06;100.00;101487.31;2061911;28;20693;-66
2022/08/12 06:05:09;;;;;;;7.20;6.30;;;;;;;23.07;100.00;101495.28;2052954;28;20187;-66
2022/08/12 06:06:10;;;;;;;9.90;6.57;;;;;;;22.82;100.00;101441.59;2059989;28;20194;-66
2022/08/12 06:07:12;;;;;;;10.60;6.87;;;;;;;22.94;100.00;101461.00;2070565;28;20201;-66
2022/08/12 06:08:14;;;;;;;10.43;6.17;;;;;;;23.26;100.00;101495.78;2071118;28;20193;-66
2022/08/12 06:09:15;;;;;;;9.03;5.93;;;;;;;23.29;100.00;101491.97;2070876;28;20205;-66
2022/08/12 06:10:16;;;;;;;7.50;6.30;;;;;;;23.37;100.00;101498.72;2070754;28;20236;-66
2022/08/12 06:11:17;;;;;;;6.57;5.87;;;;;;;23.41;100.00;101499.25;2068843;28;20284;-66
2022/08/12 06:12:22;;;;;;;7.50;6.10;;;;;;;22.98;100.00;101433.25;2067881;28;20259;-66
2022/08/12 06:13:23;;;;;;;7.00;6.30;;;;;;;23.45;100.00;101497.00;2067890;28;20665;-66
2022/08/12 06:14:23;;;;;;;7.87;6.47;;;;;;;23.45;100.00;101492.13;2068863;28;20655;-66
2022/08/12 06:15:24;;;;;;;9.93;5.87;;;;;;;23.48;100.00;101488.28;2060381;28;20667;-65
2022/08/12 06:16:25;;;;;;;8.53;6.00;;;;;;;23.53;100.00;101489.59;2062633;28;20190;-66
2022/08/12 06:17:25;;;;;;;7.77;5.60;;;;;;;23.56;100.00;101497.09;2070734;28;20229;-66
2022/08/12 06:18:26;;;;;;;8.07;6.10;;;;;;;23.34;100.00;101443.16;2070823;28;20677;-66
2022/08/12 06:19:28;;;;;;;7.60;5.90;;;;;;;23.71;100.00;101486.41;2070851;28;20256;-66